sensor_id;sensor_type;location;lat;lon;timestamp;P1;durP1;ratioP1;P2;durP2;ratioP2
19183;SDS011;9724;51.194;6.856;2024-03-25T00:01:40;15.07;;;3.20;;
19183;SDS011;9724;51.194;6.856;2024-03-25T00:04:06;29.60;;;3.87;;
19183;SDS011;9724;51.194;6.856;2024-03-25T00:06:32;16.17;;;2.90;;
19183;SDS011;9724;51.194;6.856;2024-03-25T00:08:59;20.00;;;2.80;;
19183;SDS011;9724;51.194;6.856;2024-03-25T00:11:25;17.30;;;3.23;;
19183;SDS011;9724;51.194;6.856;2024-03-25T00:13:51;22.43;;;3.33;;
19183;SDS011;9724;51.194;6.856;2024-03-25T00:16:18;21.73;;;3.33;;
19183;SDS011;9724;51.194;6.856;2024-03-25T00:18:44;13.77;;;2.87;;
19183;SDS011;9724;51.194;6.856;2024-03-25T00:21:10;17.60;;;3.30;;
19183;SDS011;9724;51.194;6.856;2024-03-25T00:23:37;25.37;;;3.43;;
19183;SDS011;9724;51.194;6.856;2024-03-25T00:26:03;22.13;;;3.40;;
19183;SDS011;9724;51.194;6.856;2024-03-25T00:28:29;18.20;;;3.60;;
19183;SDS011;9724;51.194;6.856;2024-03-25T00:30:55;21.03;;;3.50;;
19183;SDS011;9724;51.194;6.856;2024-03-25T00:33:21;17.67;;;3.43;;
19183;SDS011;9724;51.194;6.856;2024-03-25T00:35:48;11.70;;;3.60;;
19183;SDS011;9724;51.194;6.856;2024-03-25T00:38:15;10.47;;;3.67;;
19183;SDS011;9724;51.194;6.856;2024-03-25T00:40:41;20.63;;;4.37;;
19183;SDS011;9724;51.194;6.856;2024-03-25T00:43:07;14.77;;;4.03;;
19183;SDS011;9724;51.194;6.856;2024-03-25T00:45:33;17.40;;;4.27;;
19183;SDS011;9724;51.194;6.856;2024-03-25T00:48:00;20.67;;;3.97;;
19183;SDS011;9724;51.194;6.856;2024-03-25T00:50:26;12.93;;;3.90;;
19183;SDS011;9724;51.194;6.856;2024-03-25T00:52:52;15.03;;;3.93;;
19183;SDS011;9724;51.194;6.856;2024-03-25T00:55:18;20.37;;;4.33;;
19183;SDS011;9724;51.194;6.856;2024-03-25T00:57:45;21.63;;;4.70;;
19183;SDS011;9724;51.194;6.856;2024-03-25T01:00:12;14.90;;;4.40;;
19183;SDS011;9724;51.194;6.856;2024-03-25T01:02:38;23.33;;;4.63;;
19183;SDS011;9724;51.194;6.856;2024-03-25T01:05:05;16.40;;;4.70;;
19183;SDS011;9724;51.194;6.856;2024-03-25T01:07:32;20.10;;;4.80;;
19183;SDS011;9724;51.194;6.856;2024-03-25T01:09:58;14.23;;;4.57;;
19183;SDS011;9724;51.194;6.856;2024-03-25T01:12:24;20.40;;;4.50;;
19183;SDS011;9724;51.194;6.856;2024-03-25T01:14:51;20.30;;;5.07;;
19183;SDS011;9724;51.194;6.856;2024-03-25T01:17:18;16.97;;;4.60;;
19183;SDS011;9724;51.194;6.856;2024-03-25T01:19:44;16.83;;;4.43;;
19183;SDS011;9724;51.194;6.856;2024-03-25T01:22:10;16.70;;;4.23;;
19183;SDS011;9724;51.194;6.856;2024-03-25T01:24:36;27.40;;;5.20;;
19183;SDS011;9724;51.194;6.856;2024-03-25T01:27:02;17.37;;;4.20;;
19183;SDS011;9724;51.194;6.856;2024-03-25T01:29:29;23.53;;;4.87;;
19183;SDS011;9724;51.194;6.856;2024-03-25T01:31:55;21.37;;;4.50;;
19183;SDS011;9724;51.194;6.856;2024-03-25T01:34:24;23.93;;;5.17;;
19183;SDS011;9724;51.194;6.856;2024-03-25T01:36:51;15.33;;;4.73;;
19183;SDS011;9724;51.194;6.856;2024-03-25T01:39:17;14.63;;;4.40;;
19183;SDS011;9724;51.194;6.856;2024-03-25T01:41:44;12.57;;;4.30;;
19183;SDS011;9724;51.194;6.856;2024-03-25T01:44:10;16.67;;;4.73;;
19183;SDS011;9724;51.194;6.856;2024-03-25T01:46:36;28.17;;;5.07;;
19183;SDS011;9724;51.194;6.856;2024-03-25T01:49:04;20.03;;;4.80;;
19183;SDS011;9724;51.194;6.856;2024-03-25T01:51:31;21.47;;;4.83;;
19183;SDS011;9724;51.194;6.856;2024-03-25T01:53:57;18.60;;;4.87;;
19183;SDS011;9724;51.194;6.856;2024-03-25T01:56:24;15.60;;;4.67;;
19183;SDS011;9724;51.194;6.856;2024-03-25T01:58:51;24.17;;;4.93;;
19183;SDS011;9724;51.194;6.856;2024-03-25T02:01:17;24.17;;;5.57;;
19183;SDS011;9724;51.194;6.856;2024-03-25T02:03:44;17.70;;;4.33;;
19183;SDS011;9724;51.194;6.856;2024-03-25T02:06:13;17.00;;;5.07;;
19183;SDS011;9724;51.194;6.856;2024-03-25T02:08:40;19.13;;;4.50;;
19183;SDS011;9724;51.194;6.856;2024-03-25T02:11:07;18.53;;;3.90;;
19183;SDS011;9724;51.194;6.856;2024-03-25T02:13:34;18.17;;;4.37;;
19183;SDS011;9724;51.194;6.856;2024-03-25T02:16:00;25.53;;;5.30;;
19183;SDS011;9724;51.194;6.856;2024-03-25T02:18:26;18.93;;;4.50;;
19183;SDS011;9724;51.194;6.856;2024-03-25T02:20:53;20.23;;;4.40;;
19183;SDS011;9724;51.194;6.856;2024-03-25T02:23:19;26.03;;;4.23;;
19183;SDS011;9724;51.194;6.856;2024-03-25T02:25:49;23.47;;;4.77;;
19183;SDS011;9724;51.194;6.856;2024-03-25T02:28:15;20.23;;;5.20;;
19183;SDS011;9724;51.194;6.856;2024-03-25T02:30:41;17.40;;;4.50;;
19183;SDS011;9724;51.194;6.856;2024-03-25T02:33:07;14.17;;;4.40;;
19183;SDS011;9724;51.194;6.856;2024-03-25T02:35:33;15.53;;;4.07;;
19183;SDS011;9724;51.194;6.856;2024-03-25T02:38:00;18.27;;;4.27;;
19183;SDS011;9724;51.194;6.856;2024-03-25T02:40:26;19.53;;;4.87;;
19183;SDS011;9724;51.194;6.856;2024-03-25T02:42:53;22.67;;;4.97;;
19183;SDS011;9724;51.194;6.856;2024-03-25T02:45:19;21.83;;;4.50;;
19183;SDS011;9724;51.194;6.856;2024-03-25T02:47:45;16.40;;;3.90;;
19183;SDS011;9724;51.194;6.856;2024-03-25T02:50:11;18.07;;;4.70;;
19183;SDS011;9724;51.194;6.856;2024-03-25T02:52:37;16.07;;;3.70;;
19183;SDS011;9724;51.194;6.856;2024-03-25T02:55:04;28.83;;;4.03;;
19183;SDS011;9724;51.194;6.856;2024-03-25T02:57:31;22.27;;;4.33;;
19183;SDS011;9724;51.194;6.856;2024-03-25T02:59:57;21.07;;;4.17;;
19183;SDS011;9724;51.194;6.856;2024-03-25T03:02:23;20.67;;;4.10;;
19183;SDS011;9724;51.194;6.856;2024-03-25T03:04:50;19.17;;;4.20;;
19183;SDS011;9724;51.194;6.856;2024-03-25T03:07:16;19.43;;;3.63;;
19183;SDS011;9724;51.194;6.856;2024-03-25T03:09:42;24.47;;;4.20;;
19183;SDS011;9724;51.194;6.856;2024-03-25T03:12:08;24.67;;;4.63;;
19183;SDS011;9724;51.194;6.856;2024-03-25T03:14:34;20.63;;;5.40;;
19183;SDS011;9724;51.194;6.856;2024-03-25T03:17:01;18.60;;;4.43;;
19183;SDS011;9724;51.194;6.856;2024-03-25T03:19:30;29.23;;;6.13;;
19183;SDS011;9724;51.194;6.856;2024-03-25T03:21:56;20.63;;;4.90;;
19183;SDS011;9724;51.194;6.856;2024-03-25T03:24:23;22.00;;;4.07;;
19183;SDS011;9724;51.194;6.856;2024-03-25T03:26:49;22.13;;;4.47;;
19183;SDS011;9724;51.194;6.856;2024-03-25T03:29:15;18.00;;;4.27;;
19183;SDS011;9724;51.194;6.856;2024-03-25T03:31:41;21.93;;;4.20;;
19183;SDS011;9724;51.194;6.856;2024-03-25T03:34:08;19.30;;;4.50;;
19183;SDS011;9724;51.194;6.856;2024-03-25T03:36:34;20.80;;;4.10;;
19183;SDS011;9724;51.194;6.856;2024-03-25T03:39:00;20.80;;;4.57;;
19183;SDS011;9724;51.194;6.856;2024-03-25T03:41:27;22.27;;;5.10;;
19183;SDS011;9724;51.194;6.856;2024-03-25T03:43:53;20.20;;;4.30;;
19183;SDS011;9724;51.194;6.856;2024-03-25T03:46:19;23.93;;;4.13;;
19183;SDS011;9724;51.194;6.856;2024-03-25T03:48:45;18.87;;;4.20;;
19183;SDS011;9724;51.194;6.856;2024-03-25T03:51:12;16.07;;;4.10;;
19183;SDS011;9724;51.194;6.856;2024-03-25T03:53:38;23.67;;;4.10;;
19183;SDS011;9724;51.194;6.856;2024-03-25T03:56:05;21.23;;;4.73;;
19183;SDS011;9724;51.194;6.856;2024-03-25T03:58:32;18.60;;;3.93;;
19183;SDS011;9724;51.194;6.856;2024-03-25T04:00:58;17.60;;;4.40;;
19183;SDS011;9724;51.194;6.856;2024-03-25T04:03:24;20.20;;;4.67;;
19183;SDS011;9724;51.194;6.856;2024-03-25T04:05:50;17.27;;;3.90;;
19183;SDS011;9724;51.194;6.856;2024-03-25T04:08:17;15.47;;;3.97;;
19183;SDS011;9724;51.194;6.856;2024-03-25T04:10:44;15.40;;;4.07;;
19183;SDS011;9724;51.194;6.856;2024-03-25T04:13:10;22.87;;;4.60;;
19183;SDS011;9724;51.194;6.856;2024-03-25T04:15:37;26.87;;;4.60;;
19183;SDS011;9724;51.194;6.856;2024-03-25T04:18:03;20.43;;;4.10;;
19183;SDS011;9724;51.194;6.856;2024-03-25T04:20:32;18.83;;;4.13;;
19183;SDS011;9724;51.194;6.856;2024-03-25T04:23:02;23.43;;;4.80;;
19183;SDS011;9724;51.194;6.856;2024-03-25T04:25:29;20.20;;;4.77;;
19183;SDS011;9724;51.194;6.856;2024-03-25T04:27:55;27.50;;;5.00;;
19183;SDS011;9724;51.194;6.856;2024-03-25T04:30:21;14.77;;;4.10;;
19183;SDS011;9724;51.194;6.856;2024-03-25T04:32:47;24.53;;;5.27;;
19183;SDS011;9724;51.194;6.856;2024-03-25T04:35:13;16.33;;;4.30;;
19183;SDS011;9724;51.194;6.856;2024-03-25T04:37:39;15.10;;;4.40;;
19183;SDS011;9724;51.194;6.856;2024-03-25T04:40:07;18.07;;;4.80;;
19183;SDS011;9724;51.194;6.856;2024-03-25T04:42:34;24.40;;;4.67;;
19183;SDS011;9724;51.194;6.856;2024-03-25T04:45:01;25.50;;;6.37;;
19183;SDS011;9724;51.194;6.856;2024-03-25T04:47:27;27.90;;;4.70;;
19183;SDS011;9724;51.194;6.856;2024-03-25T04:49:54;18.83;;;5.00;;
19183;SDS011;9724;51.194;6.856;2024-03-25T04:52:20;20.43;;;4.67;;
19183;SDS011;9724;51.194;6.856;2024-03-25T04:54:48;15.60;;;4.73;;
19183;SDS011;9724;51.194;6.856;2024-03-25T04:57:14;20.73;;;5.13;;
19183;SDS011;9724;51.194;6.856;2024-03-25T04:59:41;18.80;;;5.00;;
19183;SDS011;9724;51.194;6.856;2024-03-25T05:02:07;16.60;;;4.50;;
19183;SDS011;9724;51.194;6.856;2024-03-25T05:04:33;19.87;;;4.90;;
19183;SDS011;9724;51.194;6.856;2024-03-25T05:06:59;22.93;;;4.83;;
19183;SDS011;9724;51.194;6.856;2024-03-25T05:09:26;22.80;;;4.97;;
19183;SDS011;9724;51.194;6.856;2024-03-25T05:11:52;18.47;;;5.43;;
19183;SDS011;9724;51.194;6.856;2024-03-25T05:14:17;17.40;;;4.53;;
19183;SDS011;9724;51.194;6.856;2024-03-25T05:16:44;21.83;;;4.77;;
19183;SDS011;9724;51.194;6.856;2024-03-25T05:19:10;23.53;;;5.10;;
19183;SDS011;9724;51.194;6.856;2024-03-25T05:21:36;18.27;;;4.63;;
19183;SDS011;9724;51.194;6.856;2024-03-25T05:24:02;21.33;;;4.90;;
19183;SDS011;9724;51.194;6.856;2024-03-25T05:26:28;17.73;;;4.73;;
19183;SDS011;9724;51.194;6.856;2024-03-25T05:28:54;22.23;;;4.77;;
19183;SDS011;9724;51.194;6.856;2024-03-25T05:31:21;20.33;;;4.57;;
19183;SDS011;9724;51.194;6.856;2024-03-25T05:33:47;17.47;;;5.00;;
19183;SDS011;9724;51.194;6.856;2024-03-25T05:36:13;32.77;;;5.40;;
19183;SDS011;9724;51.194;6.856;2024-03-25T05:38:39;21.13;;;4.73;;
19183;SDS011;9724;51.194;6.856;2024-03-25T05:41:07;24.03;;;5.30;;
19183;SDS011;9724;51.194;6.856;2024-03-25T05:43:33;18.83;;;5.03;;
19183;SDS011;9724;51.194;6.856;2024-03-25T05:45:59;24.63;;;5.73;;
19183;SDS011;9724;51.194;6.856;2024-03-25T05:48:25;20.73;;;5.43;;
19183;SDS011;9724;51.194;6.856;2024-03-25T05:50:59;21.57;;;6.00;;
19183;SDS011;9724;51.194;6.856;2024-03-25T05:53:26;24.10;;;6.23;;
19183;SDS011;9724;51.194;6.856;2024-03-25T05:55:52;25.20;;;5.30;;
19183;SDS011;9724;51.194;6.856;2024-03-25T05:58:18;19.30;;;5.10;;
19183;SDS011;9724;51.194;6.856;2024-03-25T06:00:46;21.53;;;5.57;;
19183;SDS011;9724;51.194;6.856;2024-03-25T06:03:14;24.93;;;5.43;;
19183;SDS011;9724;51.194;6.856;2024-03-25T06:05:40;15.57;;;5.77;;
19183;SDS011;9724;51.194;6.856;2024-03-25T06:08:07;18.27;;;5.37;;
19183;SDS011;9724;51.194;6.856;2024-03-25T06:10:37;18.50;;;5.90;;
19183;SDS011;9724;51.194;6.856;2024-03-25T06:13:03;14.83;;;5.60;;
19183;SDS011;9724;51.194;6.856;2024-03-25T06:15:29;26.23;;;6.40;;
19183;SDS011;9724;51.194;6.856;2024-03-25T06:17:55;18.73;;;5.27;;
19183;SDS011;9724;51.194;6.856;2024-03-25T06:20:21;20.43;;;5.60;;
19183;SDS011;9724;51.194;6.856;2024-03-25T06:22:47;18.43;;;5.67;;
19183;SDS011;9724;51.194;6.856;2024-03-25T06:25:14;16.03;;;5.93;;
19183;SDS011;9724;51.194;6.856;2024-03-25T06:27:40;24.10;;;6.10;;
19183;SDS011;9724;51.194;6.856;2024-03-25T06:30:07;16.97;;;5.73;;
19183;SDS011;9724;51.194;6.856;2024-03-25T06:32:52;21.83;;;6.00;;
19183;SDS011;9724;51.194;6.856;2024-03-25T06:35:37;18.07;;;6.43;;
19183;SDS011;9724;51.194;6.856;2024-03-25T06:38:03;21.40;;;6.40;;
19183;SDS011;9724;51.194;6.856;2024-03-25T06:40:30;19.03;;;6.07;;
19183;SDS011;9724;51.194;6.856;2024-03-25T06:42:56;28.20;;;6.20;;
19183;SDS011;9724;51.194;6.856;2024-03-25T06:45:22;18.20;;;5.77;;
19183;SDS011;9724;51.194;6.856;2024-03-25T06:47:48;15.57;;;5.27;;
19183;SDS011;9724;51.194;6.856;2024-03-25T06:50:14;21.07;;;5.17;;
19183;SDS011;9724;51.194;6.856;2024-03-25T06:52:40;16.30;;;4.77;;
19183;SDS011;9724;51.194;6.856;2024-03-25T06:55:07;19.23;;;5.63;;
19183;SDS011;9724;51.194;6.856;2024-03-25T06:57:34;15.57;;;4.90;;
19183;SDS011;9724;51.194;6.856;2024-03-25T07:00:00;17.10;;;5.13;;
19183;SDS011;9724;51.194;6.856;2024-03-25T07:02:26;18.87;;;4.70;;
19183;SDS011;9724;51.194;6.856;2024-03-25T07:04:53;16.73;;;4.87;;
19183;SDS011;9724;51.194;6.856;2024-03-25T07:07:19;19.27;;;5.43;;
19183;SDS011;9724;51.194;6.856;2024-03-25T07:09:45;16.60;;;4.70;;
19183;SDS011;9724;51.194;6.856;2024-03-25T07:12:11;27.10;;;4.80;;
19183;SDS011;9724;51.194;6.856;2024-03-25T07:14:38;18.83;;;5.47;;
19183;SDS011;9724;51.194;6.856;2024-03-25T07:17:04;16.93;;;4.60;;
19183;SDS011;9724;51.194;6.856;2024-03-25T07:19:29;20.23;;;4.57;;
19183;SDS011;9724;51.194;6.856;2024-03-25T07:21:56;24.63;;;4.97;;
19183;SDS011;9724;51.194;6.856;2024-03-25T07:24:21;21.10;;;4.63;;
19183;SDS011;9724;51.194;6.856;2024-03-25T07:26:47;22.67;;;4.43;;
19183;SDS011;9724;51.194;6.856;2024-03-25T07:29:14;15.97;;;4.33;;
19183;SDS011;9724;51.194;6.856;2024-03-25T07:31:40;15.07;;;4.47;;
19183;SDS011;9724;51.194;6.856;2024-03-25T07:34:06;11.17;;;3.97;;
19183;SDS011;9724;51.194;6.856;2024-03-25T07:36:37;10.83;;;3.17;;
19183;SDS011;9724;51.194;6.856;2024-03-25T07:39:03;17.30;;;4.07;;
19183;SDS011;9724;51.194;6.856;2024-03-25T07:41:31;19.87;;;4.80;;
19183;SDS011;9724;51.194;6.856;2024-03-25T07:43:57;12.17;;;4.60;;
19183;SDS011;9724;51.194;6.856;2024-03-25T07:46:23;16.90;;;4.90;;
19183;SDS011;9724;51.194;6.856;2024-03-25T07:48:51;19.13;;;4.50;;
19183;SDS011;9724;51.194;6.856;2024-03-25T07:51:17;22.57;;;4.93;;
19183;SDS011;9724;51.194;6.856;2024-03-25T07:53:43;18.20;;;4.87;;
19183;SDS011;9724;51.194;6.856;2024-03-25T07:56:09;17.83;;;4.73;;
19183;SDS011;9724;51.194;6.856;2024-03-25T07:58:35;21.10;;;5.30;;
19183;SDS011;9724;51.194;6.856;2024-03-25T08:01:01;19.97;;;5.30;;
19183;SDS011;9724;51.194;6.856;2024-03-25T08:03:28;27.37;;;5.87;;
19183;SDS011;9724;51.194;6.856;2024-03-25T08:05:54;16.17;;;4.67;;
19183;SDS011;9724;51.194;6.856;2024-03-25T08:08:20;18.73;;;5.47;;
19183;SDS011;9724;51.194;6.856;2024-03-25T08:10:46;17.60;;;5.07;;
19183;SDS011;9724;51.194;6.856;2024-03-25T08:13:13;19.17;;;4.73;;
19183;SDS011;9724;51.194;6.856;2024-03-25T08:15:39;18.60;;;4.70;;
19183;SDS011;9724;51.194;6.856;2024-03-25T08:18:05;13.10;;;4.40;;
19183;SDS011;9724;51.194;6.856;2024-03-25T08:20:31;17.53;;;4.77;;
19183;SDS011;9724;51.194;6.856;2024-03-25T08:22:58;22.37;;;5.53;;
19183;SDS011;9724;51.194;6.856;2024-03-25T08:25:24;15.60;;;4.90;;
19183;SDS011;9724;51.194;6.856;2024-03-25T08:27:50;20.67;;;4.53;;
19183;SDS011;9724;51.194;6.856;2024-03-25T08:30:16;21.83;;;5.00;;
19183;SDS011;9724;51.194;6.856;2024-03-25T08:32:42;21.07;;;5.07;;
19183;SDS011;9724;51.194;6.856;2024-03-25T08:35:08;15.17;;;5.07;;
19183;SDS011;9724;51.194;6.856;2024-03-25T08:37:35;19.63;;;5.03;;
19183;SDS011;9724;51.194;6.856;2024-03-25T08:40:01;19.00;;;4.90;;
19183;SDS011;9724;51.194;6.856;2024-03-25T08:42:29;24.20;;;5.07;;
19183;SDS011;9724;51.194;6.856;2024-03-25T08:44:55;18.33;;;4.40;;
19183;SDS011;9724;51.194;6.856;2024-03-25T08:47:21;17.80;;;4.53;;
19183;SDS011;9724;51.194;6.856;2024-03-25T08:49:47;20.63;;;4.17;;
19183;SDS011;9724;51.194;6.856;2024-03-25T08:52:14;24.57;;;4.70;;
19183;SDS011;9724;51.194;6.856;2024-03-25T08:54:39;19.03;;;4.20;;
19183;SDS011;9724;51.194;6.856;2024-03-25T08:57:07;14.67;;;4.23;;
19183;SDS011;9724;51.194;6.856;2024-03-25T08:59:33;17.53;;;3.63;;
19183;SDS011;9724;51.194;6.856;2024-03-25T09:01:59;25.43;;;4.93;;
19183;SDS011;9724;51.194;6.856;2024-03-25T09:04:25;12.53;;;3.67;;
19183;SDS011;9724;51.194;6.856;2024-03-25T09:06:53;16.20;;;3.13;;
19183;SDS011;9724;51.194;6.856;2024-03-25T09:09:19;14.00;;;3.40;;
19183;SDS011;9724;51.194;6.856;2024-03-25T09:12:04;16.33;;;3.37;;
19183;SDS011;9724;51.194;6.856;2024-03-25T09:14:32;19.83;;;3.40;;
19183;SDS011;9724;51.194;6.856;2024-03-25T09:16:58;12.43;;;3.47;;
19183;SDS011;9724;51.194;6.856;2024-03-25T09:19:24;13.53;;;2.63;;
19183;SDS011;9724;51.194;6.856;2024-03-25T09:21:51;7.67;;;2.20;;
19183;SDS011;9724;51.194;6.856;2024-03-25T09:24:17;16.27;;;2.90;;
19183;SDS011;9724;51.194;6.856;2024-03-25T09:26:43;13.67;;;2.97;;
19183;SDS011;9724;51.194;6.856;2024-03-25T09:29:09;14.07;;;2.83;;
19183;SDS011;9724;51.194;6.856;2024-03-25T09:31:37;13.13;;;2.90;;
19183;SDS011;9724;51.194;6.856;2024-03-25T09:34:03;13.73;;;3.23;;
19183;SDS011;9724;51.194;6.856;2024-03-25T09:36:30;15.43;;;2.20;;
19183;SDS011;9724;51.194;6.856;2024-03-25T09:38:56;15.97;;;3.00;;
19183;SDS011;9724;51.194;6.856;2024-03-25T09:41:22;16.43;;;3.33;;
19183;SDS011;9724;51.194;6.856;2024-03-25T09:43:50;16.50;;;3.00;;
19183;SDS011;9724;51.194;6.856;2024-03-25T09:46:18;13.07;;;2.50;;
19183;SDS011;9724;51.194;6.856;2024-03-25T09:48:45;13.30;;;2.80;;
19183;SDS011;9724;51.194;6.856;2024-03-25T09:51:11;11.67;;;2.83;;
19183;SDS011;9724;51.194;6.856;2024-03-25T09:53:37;14.27;;;2.40;;
19183;SDS011;9724;51.194;6.856;2024-03-25T09:56:03;14.40;;;3.23;;
19183;SDS011;9724;51.194;6.856;2024-03-25T09:58:30;12.43;;;2.73;;
19183;SDS011;9724;51.194;6.856;2024-03-25T10:00:58;13.90;;;2.53;;
19183;SDS011;9724;51.194;6.856;2024-03-25T10:03:24;11.80;;;2.70;;
19183;SDS011;9724;51.194;6.856;2024-03-25T10:05:51;11.27;;;2.83;;
19183;SDS011;9724;51.194;6.856;2024-03-25T10:08:19;12.03;;;3.13;;
19183;SDS011;9724;51.194;6.856;2024-03-25T10:10:46;16.90;;;3.07;;
19183;SDS011;9724;51.194;6.856;2024-03-25T10:13:12;10.27;;;2.20;;
19183;SDS011;9724;51.194;6.856;2024-03-25T10:15:38;8.40;;;2.33;;
19183;SDS011;9724;51.194;6.856;2024-03-25T10:18:04;19.13;;;2.97;;
19183;SDS011;9724;51.194;6.856;2024-03-25T10:20:31;16.13;;;3.43;;
19183;SDS011;9724;51.194;6.856;2024-03-25T10:22:57;12.33;;;2.67;;
19183;SDS011;9724;51.194;6.856;2024-03-25T10:25:25;10.60;;;3.40;;
19183;SDS011;9724;51.194;6.856;2024-03-25T10:27:52;10.20;;;2.90;;
19183;SDS011;9724;51.194;6.856;2024-03-25T10:30:19;13.57;;;3.07;;
19183;SDS011;9724;51.194;6.856;2024-03-25T10:32:45;12.37;;;3.40;;
19183;SDS011;9724;51.194;6.856;2024-03-25T10:35:12;15.90;;;3.50;;
19183;SDS011;9724;51.194;6.856;2024-03-25T10:37:38;10.60;;;3.13;;
19183;SDS011;9724;51.194;6.856;2024-03-25T10:40:06;13.47;;;3.40;;
19183;SDS011;9724;51.194;6.856;2024-03-25T10:42:33;18.53;;;4.47;;
19183;SDS011;9724;51.194;6.856;2024-03-25T10:45:00;13.30;;;4.20;;
19183;SDS011;9724;51.194;6.856;2024-03-25T10:47:27;16.27;;;3.30;;
19183;SDS011;9724;51.194;6.856;2024-03-25T10:49:56;11.77;;;3.30;;
19183;SDS011;9724;51.194;6.856;2024-03-25T10:52:23;6.90;;;3.30;;
19183;SDS011;9724;51.194;6.856;2024-03-25T10:54:50;10.90;;;3.83;;
19183;SDS011;9724;51.194;6.856;2024-03-25T10:57:17;11.37;;;3.53;;
19183;SDS011;9724;51.194;6.856;2024-03-25T10:59:44;8.70;;;3.00;;
19183;SDS011;9724;51.194;6.856;2024-03-25T11:02:13;10.20;;;3.23;;
19183;SDS011;9724;51.194;6.856;2024-03-25T11:04:40;8.63;;;2.70;;
19183;SDS011;9724;51.194;6.856;2024-03-25T11:07:07;9.97;;;3.07;;
19183;SDS011;9724;51.194;6.856;2024-03-25T11:09:33;8.37;;;3.10;;
19183;SDS011;9724;51.194;6.856;2024-03-25T11:11:59;12.70;;;3.73;;
19183;SDS011;9724;51.194;6.856;2024-03-25T11:14:26;12.57;;;3.03;;
19183;SDS011;9724;51.194;6.856;2024-03-25T11:16:53;10.67;;;2.90;;
19183;SDS011;9724;51.194;6.856;2024-03-25T11:19:21;11.73;;;3.37;;
19183;SDS011;9724;51.194;6.856;2024-03-25T11:21:51;11.53;;;2.87;;
19183;SDS011;9724;51.194;6.856;2024-03-25T11:24:26;7.33;;;2.43;;
19183;SDS011;9724;51.194;6.856;2024-03-25T11:26:52;9.53;;;2.13;;
19183;SDS011;9724;51.194;6.856;2024-03-25T11:29:18;6.50;;;2.40;;
19183;SDS011;9724;51.194;6.856;2024-03-25T11:31:45;10.87;;;3.43;;
19183;SDS011;9724;51.194;6.856;2024-03-25T11:34:15;8.93;;;2.63;;
19183;SDS011;9724;51.194;6.856;2024-03-25T11:36:41;7.53;;;2.57;;
19183;SDS011;9724;51.194;6.856;2024-03-25T11:39:07;9.10;;;2.67;;
19183;SDS011;9724;51.194;6.856;2024-03-25T11:41:35;5.93;;;2.10;;
19183;SDS011;9724;51.194;6.856;2024-03-25T11:44:07;6.00;;;2.63;;
19183;SDS011;9724;51.194;6.856;2024-03-25T11:46:35;11.57;;;3.33;;
19183;SDS011;9724;51.194;6.856;2024-03-25T11:49:03;7.70;;;2.60;;
19183;SDS011;9724;51.194;6.856;2024-03-25T11:51:29;7.23;;;2.53;;
19183;SDS011;9724;51.194;6.856;2024-03-25T11:53:56;7.90;;;2.80;;
19183;SDS011;9724;51.194;6.856;2024-03-25T11:56:22;11.57;;;2.93;;
19183;SDS011;9724;51.194;6.856;2024-03-25T11:58:48;13.90;;;3.13;;
19183;SDS011;9724;51.194;6.856;2024-03-25T12:01:14;10.57;;;3.17;;
19183;SDS011;9724;51.194;6.856;2024-03-25T12:03:40;12.03;;;3.47;;
19183;SDS011;9724;51.194;6.856;2024-03-25T12:06:08;12.03;;;3.47;;
19183;SDS011;9724;51.194;6.856;2024-03-25T12:08:34;6.33;;;2.80;;
19183;SDS011;9724;51.194;6.856;2024-03-25T12:11:10;10.73;;;2.60;;
19183;SDS011;9724;51.194;6.856;2024-03-25T12:13:45;10.50;;;3.13;;
19183;SDS011;9724;51.194;6.856;2024-03-25T12:16:11;7.87;;;2.80;;
19183;SDS011;9724;51.194;6.856;2024-03-25T12:18:39;9.73;;;2.90;;
19183;SDS011;9724;51.194;6.856;2024-03-25T12:21:06;4.33;;;2.50;;
19183;SDS011;9724;51.194;6.856;2024-03-25T12:23:34;9.00;;;3.17;;
19183;SDS011;9724;51.194;6.856;2024-03-25T12:26:00;8.23;;;3.10;;
19183;SDS011;9724;51.194;6.856;2024-03-25T12:28:27;13.97;;;4.30;;
19183;SDS011;9724;51.194;6.856;2024-03-25T12:30:54;11.93;;;2.50;;
19183;SDS011;9724;51.194;6.856;2024-03-25T12:33:21;6.93;;;2.53;;
19183;SDS011;9724;51.194;6.856;2024-03-25T12:35:49;10.73;;;3.27;;
19183;SDS011;9724;51.194;6.856;2024-03-25T12:38:25;12.77;;;3.50;;
19183;SDS011;9724;51.194;6.856;2024-03-25T12:40:52;10.93;;;3.37;;
19183;SDS011;9724;51.194;6.856;2024-03-25T12:43:18;13.53;;;3.53;;
19183;SDS011;9724;51.194;6.856;2024-03-25T12:45:49;5.63;;;2.27;;
19183;SDS011;9724;51.194;6.856;2024-03-25T12:48:15;11.50;;;2.47;;
19183;SDS011;9724;51.194;6.856;2024-03-25T12:50:41;5.63;;;2.33;;
19183;SDS011;9724;51.194;6.856;2024-03-25T12:53:07;4.27;;;2.07;;
19183;SDS011;9724;51.194;6.856;2024-03-25T12:55:33;6.50;;;2.60;;
19183;SDS011;9724;51.194;6.856;2024-03-25T12:58:00;10.07;;;2.40;;
19183;SDS011;9724;51.194;6.856;2024-03-25T13:00:26;5.97;;;2.63;;
19183;SDS011;9724;51.194;6.856;2024-03-25T13:02:52;6.67;;;2.20;;
19183;SDS011;9724;51.194;6.856;2024-03-25T13:05:18;6.87;;;2.30;;
19183;SDS011;9724;51.194;6.856;2024-03-25T13:07:44;8.27;;;2.47;;
19183;SDS011;9724;51.194;6.856;2024-03-25T13:10:10;6.60;;;2.30;;
19183;SDS011;9724;51.194;6.856;2024-03-25T13:12:36;6.70;;;2.50;;
19183;SDS011;9724;51.194;6.856;2024-03-25T13:15:03;5.57;;;2.03;;
19183;SDS011;9724;51.194;6.856;2024-03-25T13:17:30;9.07;;;2.10;;
19183;SDS011;9724;51.194;6.856;2024-03-25T13:19:56;4.87;;;1.80;;
19183;SDS011;9724;51.194;6.856;2024-03-25T13:22:22;7.13;;;1.80;;
19183;SDS011;9724;51.194;6.856;2024-03-25T13:24:48;5.57;;;1.80;;
19183;SDS011;9724;51.194;6.856;2024-03-25T13:27:15;3.53;;;1.63;;
19183;SDS011;9724;51.194;6.856;2024-03-25T13:29:41;6.27;;;1.83;;
19183;SDS011;9724;51.194;6.856;2024-03-25T13:32:08;7.60;;;1.93;;
19183;SDS011;9724;51.194;6.856;2024-03-25T13:34:34;9.33;;;2.23;;
19183;SDS011;9724;51.194;6.856;2024-03-25T13:37:00;10.80;;;2.00;;
19183;SDS011;9724;51.194;6.856;2024-03-25T13:39:27;4.00;;;2.20;;
19183;SDS011;9724;51.194;6.856;2024-03-25T13:41:53;7.70;;;2.10;;
19183;SDS011;9724;51.194;6.856;2024-03-25T13:44:19;6.63;;;1.70;;
19183;SDS011;9724;51.194;6.856;2024-03-25T13:46:45;11.00;;;1.97;;
19183;SDS011;9724;51.194;6.856;2024-03-25T13:49:12;4.33;;;2.07;;
19183;SDS011;9724;51.194;6.856;2024-03-25T13:51:40;6.87;;;2.00;;
19183;SDS011;9724;51.194;6.856;2024-03-25T13:54:06;5.63;;;1.90;;
19183;SDS011;9724;51.194;6.856;2024-03-25T13:56:32;8.57;;;2.27;;
19183;SDS011;9724;51.194;6.856;2024-03-25T13:58:58;7.10;;;2.30;;
19183;SDS011;9724;51.194;6.856;2024-03-25T14:01:25;6.00;;;2.03;;
19183;SDS011;9724;51.194;6.856;2024-03-25T14:03:51;5.93;;;2.00;;
19183;SDS011;9724;51.194;6.856;2024-03-25T14:06:17;4.60;;;1.57;;
19183;SDS011;9724;51.194;6.856;2024-03-25T14:08:43;7.10;;;1.80;;
19183;SDS011;9724;51.194;6.856;2024-03-25T14:11:10;5.27;;;2.00;;
19183;SDS011;9724;51.194;6.856;2024-03-25T14:13:36;10.60;;;1.97;;
19183;SDS011;9724;51.194;6.856;2024-03-25T14:16:03;8.80;;;1.93;;
19183;SDS011;9724;51.194;6.856;2024-03-25T14:18:29;6.13;;;2.00;;
19183;SDS011;9724;51.194;6.856;2024-03-25T14:20:56;4.53;;;1.53;;
19183;SDS011;9724;51.194;6.856;2024-03-25T14:23:23;4.93;;;2.37;;
19183;SDS011;9724;51.194;6.856;2024-03-25T14:25:49;7.90;;;1.80;;
19183;SDS011;9724;51.194;6.856;2024-03-25T14:28:15;6.33;;;1.63;;
19183;SDS011;9724;51.194;6.856;2024-03-25T14:30:41;4.57;;;1.83;;
19183;SDS011;9724;51.194;6.856;2024-03-25T14:33:07;4.10;;;1.87;;
19183;SDS011;9724;51.194;6.856;2024-03-25T14:35:33;3.67;;;1.63;;
19183;SDS011;9724;51.194;6.856;2024-03-25T14:37:59;3.20;;;1.77;;
19183;SDS011;9724;51.194;6.856;2024-03-25T14:40:27;9.47;;;1.70;;
19183;SDS011;9724;51.194;6.856;2024-03-25T14:42:53;10.27;;;1.97;;
19183;SDS011;9724;51.194;6.856;2024-03-25T14:45:19;4.23;;;1.70;;
19183;SDS011;9724;51.194;6.856;2024-03-25T14:47:45;6.60;;;1.63;;